Time;durP1;ratioP1;P1;durP2;ratioP2;P2;SDS_P1;SDS_P2;PMS_P1;PMS_P2;Temp;Humidity;BMP_temperature;BMP_pressure;BME280_temperature;BME280_humidity;BME280_pressure;Samples;Min_cycle;Max_cycle;Signal;HPM_P1;HPM_P2
2023/08/30 00:01:05;;;;;;;21.83;8.82;;;;;;;;;;5044375;28;20112;-64
2023/08/30 00:03:33;;;;;;;27.45;11.70;;;;;;;;;;5037521;28;20033;-63
2023/08/30 00:06:02;;;;;;;27.27;11.57;;;;;;;;;;5058124;28;20476;-64
2023/08/30 00:08:27;;;;;;;22.40;10.57;;;;;;;;;;5051562;28;20059;-64
2023/08/30 00:10:53;;;;;;;17.40;8.93;;;;;;;;;;5054173;28;20514;-64
2023/08/30 00:13:18;;;;;;;16.73;8.43;;;;;;;;;;5051862;28;20156;-63
2023/08/30 00:15:43;;;;;;;28.13;10.30;;;;;;;;;;5043588;28;20037;-63
2023/08/30 00:18:09;;;;;;;19.15;8.57;;;;;;;;;;5029808;28;20036;-63
2023/08/30 00:20:34;;;;;;;15.13;7.95;;;;;;;;;;5055050;28;20033;-63
2023/08/30 00:23:00;;;;;;;13.85;7.97;;;;;;;;;;5054747;28;20509;-63
2023/08/30 00:25:25;;;;;;;17.48;8.30;;;;;;;;;;5053284;28;20098;-64
2023/08/30 00:27:51;;;;;;;17.13;8.60;;;;;;;;;;5048369;28;20526;-63
2023/08/30 00:30:16;;;;;;;14.55;7.05;;;;;;;;;;5039934;28;20116;-63
2023/08/30 00:32:41;;;;;;;12.43;6.70;;;;;;;;;;5045961;28;20024;-64
2023/08/30 00:35:09;;;;;;;13.68;6.20;;;;;;;;;;5055106;28;20024;-64
2023/08/30 00:37:34;;;;;;;10.52;6.20;;;;;;;;;;5044901;28;20051;-63
2023/08/30 00:40:00;;;;;;;30.52;14.35;;;;;;;;;;5055275;28;20337;-63
2023/08/30 00:42:25;;;;;;;46.70;19.70;;;;;;;;;;5053653;28;20032;-63
2023/08/30 00:44:50;;;;;;;43.78;18.42;;;;;;;;;;5039388;28;20028;-63
2023/08/30 00:47:16;;;;;;;33.90;15.60;;;;;;;;;;5055837;28;20056;-64
2023/08/30 00:49:41;;;;;;;35.92;14.23;;;;;;;;;;5028915;28;20091;-63
2023/08/30 00:52:07;;;;;;;14.88;7.80;;;;;;;;;;5054211;28;20456;-64
2023/08/30 00:54:33;;;;;;;12.63;7.25;;;;;;;;;;5050674;28;20052;-64
2023/08/30 00:57:00;;;;;;;10.07;5.80;;;;;;;;;;5048279;28;20047;-62
2023/08/30 00:59:25;;;;;;;13.85;6.07;;;;;;;;;;5039567;28;20343;-64
2023/08/30 01:01:51;;;;;;;10.65;5.57;;;;;;;;;;5051522;28;20225;-62
2023/08/30 01:04:18;;;;;;;11.05;6.03;;;;;;;;;;5052195;28;20076;-63
2023/08/30 01:06:43;;;;;;;13.68;6.70;;;;;;;;;;5049767;28;20211;-63
2023/08/30 01:09:09;;;;;;;16.48;7.22;;;;;;;;;;5053001;28;20048;-63
2023/08/30 01:11:43;;;;;;;15.88;7.18;;;;;;;;;;5051130;28;20497;-63
2023/08/30 01:14:12;;;;;;;14.57;7.25;;;;;;;;;;5048202;28;20044;-63
2023/08/30 01:16:39;;;;;;;14.27;6.65;;;;;;;;;;5053768;28;20418;-62
2023/08/30 01:19:25;;;;;;;13.75;6.70;;;;;;;;;;5054681;28;20024;-63
2023/08/30 01:22:00;;;;;;;11.27;6.07;;;;;;;;;;5046300;28;20063;-63
2023/08/30 01:24:32;;;;;;;10.38;5.97;;;;;;;;;;5054656;28;20031;-63
2023/08/30 01:27:11;;;;;;;12.00;5.72;;;;;;;;;;5016875;28;20036;-63
2023/08/30 01:29:38;;;;;;;11.50;6.13;;;;;;;;;;5055030;28;20035;-63
2023/08/30 01:32:04;;;;;;;10.50;5.82;;;;;;;;;;5050064;28;21022;-63
2023/08/30 01:34:30;;;;;;;7.10;3.90;;;;;;;;;;5050871;28;20116;-63
2023/08/30 01:36:58;;;;;;;9.52;2.83;;;;;;;;;;5055259;28;20055;-63
2023/08/30 01:39:23;;;;;;;15.60;5.70;;;;;;;;;;5043486;28;20350;-64
2023/08/30 01:41:52;;;;;;;10.13;3.00;;;;;;;;;;5050616;28;20033;-63
2023/08/30 01:44:17;;;;;;;10.65;3.38;;;;;;;;;;5053208;28;20048;-64
2023/08/30 01:46:45;;;;;;;9.40;2.80;;;;;;;;;;5050592;28;20040;-64
2023/08/30 01:49:14;;;;;;;9.52;2.75;;;;;;;;;;5036996;28;20131;-64
2023/08/30 01:51:40;;;;;;;6.10;2.40;;;;;;;;;;5045316;28;20034;-63
2023/08/30 01:54:06;;;;;;;8.90;2.63;;;;;;;;;;5046156;28;20047;-61
2023/08/30 01:56:31;;;;;;;5.90;2.55;;;;;;;;;;5050330;28;20032;-63
2023/08/30 01:58:56;;;;;;;20.70;6.93;;;;;;;;;;5039681;28;20045;-63
2023/08/30 02:01:22;;;;;;;7.00;3.17;;;;;;;;;;5050460;28;20043;-63
2023/08/30 02:03:47;;;;;;;9.77;3.00;;;;;;;;;;5045998;28;20041;-63
2023/08/30 02:06:25;;;;;;;5.88;2.40;;;;;;;;;;5049834;28;20154;-63
2023/08/30 02:08:55;;;;;;;11.88;2.50;;;;;;;;;;5047598;28;20082;-63
2023/08/30 02:11:26;;;;;;;11.18;2.33;;;;;;;;;;5032700;28;20033;-63
2023/08/30 02:13:55;;;;;;;10.32;2.45;;;;;;;;;;5032732;28;20194;-63
2023/08/30 02:16:22;;;;;;;17.55;7.50;;;;;;;;;;5023550;28;20045;-63
2023/08/30 02:18:47;;;;;;;19.33;8.00;;;;;;;;;;5025334;28;20032;-62
2023/08/30 02:21:13;;;;;;;16.25;8.40;;;;;;;;;;5031673;28;20029;-62
2023/08/30 02:23:40;;;;;;;17.98;8.55;;;;;;;;;;5017814;28;20033;-63
2023/08/30 02:26:05;;;;;;;20.73;8.05;;;;;;;;;;5025291;28;20119;-63
2023/08/30 02:28:31;;;;;;;14.70;7.70;;;;;;;;;;5000509;28;20241;-63
2023/08/30 02:30:56;;;;;;;12.40;7.90;;;;;;;;;;4998943;28;20042;-63
2023/08/30 02:33:24;;;;;;;14.75;7.43;;;;;;;;;;5018004;28;20282;-63
2023/08/30 02:35:49;;;;;;;16.48;9.00;;;;;;;;;;5027582;28;20132;-63
2023/08/30 02:38:14;;;;;;;17.00;8.38;;;;;;;;;;5026087;28;20112;-63
2023/08/30 02:40:40;;;;;;;17.50;8.90;;;;;;;;;;5023609;28;20037;-63
2023/08/30 02:43:07;;;;;;;21.75;9.98;;;;;;;;;;5030327;28;20036;-63
2023/08/30 02:45:32;;;;;;;21.98;10.10;;;;;;;;;;5014177;28;20130;-63
2023/08/30 02:47:58;;;;;;;22.73;10.63;;;;;;;;;;5028612;28;20108;-64
2023/08/30 02:50:23;;;;;;;19.23;9.63;;;;;;;;;;4996367;28;20252;-64
2023/08/30 02:52:49;;;;;;;22.52;10.13;;;;;;;;;;5026615;28;20409;-64
2023/08/30 02:55:14;;;;;;;18.60;8.63;;;;;;;;;;5028473;28;20036;-64
2023/08/30 02:57:39;;;;;;;20.52;8.88;;;;;;;;;;5026795;28;20505;-64
2023/08/30 03:00:05;;;;;;;16.45;8.82;;;;;;;;;;5026143;28;21026;-64
2023/08/30 03:02:31;;;;;;;25.70;9.38;;;;;;;;;;5031123;28;20029;-64
2023/08/30 03:04:56;;;;;;;23.25;9.80;;;;;;;;;;5008393;28;20516;-64
2023/08/30 03:07:22;;;;;;;19.90;9.20;;;;;;;;;;5026594;28;20029;-64
2023/08/30 03:09:51;;;;;;;25.98;11.63;;;;;;;;;;5009866;28;20032;-63
2023/08/30 03:12:16;;;;;;;30.98;12.27;;;;;;;;;;5010245;28;20058;-63
2023/08/30 03:14:42;;;;;;;44.92;17.42;;;;;;;;;;5030410;28;20036;-63
2023/08/30 03:17:07;;;;;;;37.83;15.05;;;;;;;;;;5026778;28;20048;-64
2023/08/30 03:19:32;;;;;;;27.55;11.65;;;;;;;;;;5052844;28;21376;-64
2023/08/30 03:22:00;;;;;;;29.75;13.10;;;;;;;;;;5047803;28;20032;-64
2023/08/30 03:24:25;;;;;;;36.00;13.70;;;;;;;;;;5052958;28;20124;-64
2023/08/30 03:26:53;;;;;;;26.92;10.93;;;;;;;;;;5028797;28;20268;-64
2023/08/30 03:29:18;;;;;;;23.70;10.93;;;;;;;;;;5048325;28;20033;-64
2023/08/30 03:31:44;;;;;;;22.35;11.32;;;;;;;;;;5047932;28;20046;-62
2023/08/30 03:34:09;;;;;;;27.92;12.05;;;;;;;;;;5039433;28;20669;-63
2023/08/30 03:36:34;;;;;;;24.48;11.73;;;;;;;;;;5036994;28;20037;-63
2023/08/30 03:39:00;;;;;;;37.70;15.75;;;;;;;;;;5030537;28;20297;-63
2023/08/30 03:41:25;;;;;;;33.10;15.75;;;;;;;;;;5035566;28;20036;-63
2023/08/30 03:43:50;;;;;;;34.92;15.80;;;;;;;;;;5046291;28;20381;-63
2023/08/30 03:46:15;;;;;;;36.40;13.98;;;;;;;;;;5054860;28;20417;-63
2023/08/30 03:48:41;;;;;;;31.75;13.68;;;;;;;;;;5049306;28;20040;-63
2023/08/30 03:51:06;;;;;;;34.13;15.18;;;;;;;;;;5044987;28;20041;-63
2023/08/30 03:53:31;;;;;;;35.55;15.43;;;;;;;;;;5035250;28;20049;-63
2023/08/30 03:55:57;;;;;;;52.05;20.85;;;;;;;;;;5051605;28;20047;-64
2023/08/30 03:58:23;;;;;;;40.70;19.38;;;;;;;;;;5052665;28;20040;-63
2023/08/30 04:00:48;;;;;;;43.53;19.42;;;;;;;;;;5026864;28;20049;-64
2023/08/30 04:03:14;;;;;;;51.50;20.73;;;;;;;;;;5046079;28;20074;-63
2023/08/30 04:05:42;;;;;;;59.80;23.77;;;;;;;;;;5041834;28;20033;-63
2023/08/30 04:08:08;;;;;;;54.35;21.98;;;;;;;;;;5034489;28;20036;-63
2023/08/30 04:10:37;;;;;;;53.35;22.65;;;;;;;;;;5048467;28;20048;-64
2023/08/30 04:13:03;;;;;;;40.35;17.67;;;;;;;;;;5044541;28;20505;-63
2023/08/30 04:15:28;;;;;;;36.65;16.77;;;;;;;;;;5057058;28;20025;-64
2023/08/30 04:17:53;;;;;;;33.38;16.65;;;;;;;;;;5053427;28;20132;-64
2023/08/30 04:20:18;;;;;;;49.10;20.90;;;;;;;;;;5037442;28;20025;-64
2023/08/30 04:22:44;;;;;;;48.92;22.05;;;;;;;;;;5051092;28;20481;-63
2023/08/30 04:25:12;;;;;;;52.40;22.00;;;;;;;;;;5037960;28;20028;-64
2023/08/30 04:27:39;;;;;;;56.95;23.30;;;;;;;;;;5054151;28;20090;-63
2023/08/30 04:30:05;;;;;;;54.42;23.63;;;;;;;;;;5052122;28;20040;-63
2023/08/30 04:32:30;;;;;;;24.60;13.82;;;;;;;;;;5033642;28;20021;-63
2023/08/30 04:34:55;;;;;;;18.48;11.95;;;;;;;;;;5021107;28;20037;-63
2023/08/30 04:37:20;;;;;;;19.58;11.60;;;;;;;;;;5045208;28;20120;-63
2023/08/30 04:39:49;;;;;;;20.17;11.60;;;;;;;;;;5053159;28;20033;-63
2023/08/30 04:42:14;;;;;;;19.65;11.80;;;;;;;;;;5052727;28;20033;-63
2023/08/30 04:44:39;;;;;;;18.73;11.60;;;;;;;;;;5042687;28;20043;-63
2023/08/30 04:47:05;;;;;;;16.65;11.98;;;;;;;;;;5042120;28;20040;-63
2023/08/30 04:49:30;;;;;;;17.85;11.63;;;;;;;;;;5035625;28;20128;-63
2023/08/30 04:51:55;;;;;;;19.40;12.30;;;;;;;;;;5047482;28;20519;-63
2023/08/30 04:54:20;;;;;;;21.88;12.88;;;;;;;;;;5048339;28;20153;-63
2023/08/30 04:56:46;;;;;;;19.58;12.90;;;;;;;;;;5045577;28;20032;-63
2023/08/30 04:59:12;;;;;;;19.75;12.10;;;;;;;;;;5036197;28;20074;-63
2023/08/30 05:01:38;;;;;;;21.50;12.90;;;;;;;;;;5036717;28;20514;-63
2023/08/30 05:04:05;;;;;;;19.45;12.50;;;;;;;;;;5029771;28;20386;-63
2023/08/30 05:06:30;;;;;;;28.83;15.35;;;;;;;;;;5048837;28;20040;-69
2023/08/30 05:08:58;;;;;;;20.70;12.77;;;;;;;;;;5046534;28;20028;-65
2023/08/30 05:11:23;;;;;;;19.25;12.30;;;;;;;;;;5056152;28;20547;-65
2023/08/30 05:13:48;;;;;;;21.55;12.88;;;;;;;;;;5058129;28;20045;-65
2023/08/30 05:16:13;;;;;;;22.63;13.13;;;;;;;;;;5033462;28;20036;-65
2023/08/30 05:18:39;;;;;;;26.27;14.45;;;;;;;;;;5037962;28;20047;-65
2023/08/30 05:21:04;;;;;;;22.23;12.82;;;;;;;;;;5038840;28;20062;-66
2023/08/30 05:23:30;;;;;;;37.53;16.52;;;;;;;;;;5033528;28;20396;-65
2023/08/30 05:25:55;;;;;;;45.13;19.08;;;;;;;;;;5037868;28;20193;-65
2023/08/30 05:28:20;;;;;;;38.45;18.65;;;;;;;;;;5055832;28;20059;-64
2023/08/30 05:30:45;;;;;;;18.60;11.93;;;;;;;;;;5049409;28;20040;-65
2023/08/30 05:33:11;;;;;;;21.50;11.25;;;;;;;;;;5055529;28;20036;-63
2023/08/30 05:35:36;;;;;;;22.88;11.93;;;;;;;;;;5036924;28;20105;-63
2023/08/30 05:38:01;;;;;;;17.30;11.60;;;;;;;;;;5046195;28;20039;-63
2023/08/30 05:40:26;;;;;;;26.50;13.88;;;;;;;;;;5051094;28;20178;-63
2023/08/30 05:42:52;;;;;;;20.58;12.00;;;;;;;;;;5037508;28;20115;-63
2023/08/30 05:45:17;;;;;;;17.63;12.48;;;;;;;;;;5035102;28;20500;-63
2023/08/30 05:47:42;;;;;;;20.05;12.65;;;;;;;;;;5033734;28;20048;-64
2023/08/30 05:50:08;;;;;;;32.97;14.65;;;;;;;;;;5046139;28;20165;-65
2023/08/30 05:52:33;;;;;;;22.95;13.25;;;;;;;;;;5048596;28;20120;-63
2023/08/30 05:55:01;;;;;;;21.15;13.10;;;;;;;;;;5036954;28;20635;-64
2023/08/30 05:57:28;;;;;;;18.13;11.98;;;;;;;;;;5032543;28;20444;-64
2023/08/30 05:59:54;;;;;;;26.50;15.32;;;;;;;;;;5033125;28;20542;-65
2023/08/30 06:02:19;;;;;;;23.35;14.52;;;;;;;;;;5049335;28;20045;-65
2023/08/30 06:04:44;;;;;;;18.08;11.73;;;;;;;;;;5045558;28;20040;-65
2023/08/30 06:07:12;;;;;;;22.27;13.65;;;;;;;;;;5053504;28;20039;-65
2023/08/30 06:09:37;;;;;;;18.67;12.55;;;;;;;;;;5052996;28;20582;-63
2023/08/30 06:12:05;;;;;;;16.98;12.18;;;;;;;;;;5046363;28;20277;-63
2023/08/30 06:14:30;;;;;;;21.20;13.25;;;;;;;;;;5047411;28;20437;-63
2023/08/30 06:16:58;;;;;;;25.63;14.73;;;;;;;;;;5040288;28;20099;-63
2023/08/30 06:19:26;;;;;;;27.48;16.05;;;;;;;;;;5049346;28;20062;-64
2023/08/30 06:21:53;;;;;;;42.28;20.48;;;;;;;;;;5054358;28;20029;-63
2023/08/30 06:24:19;;;;;;;49.67;25.42;;;;;;;;;;5052620;28;20035;-67
2023/08/30 06:26:44;;;;;;;55.10;27.52;;;;;;;;;;5050806;28;20544;-65
2023/08/30 06:29:09;;;;;;;51.30;24.98;;;;;;;;;;5035041;28;20039;-65
2023/08/30 06:31:34;;;;;;;48.03;23.80;;;;;;;;;;5054419;28;20025;-65
2023/08/30 06:34:00;;;;;;;56.30;25.52;;;;;;;;;;5046669;28;20037;-67
2023/08/30 06:36:25;;;;;;;41.10;21.27;;;;;;;;;;5014687;28;20188;-66
2023/08/30 06:38:50;;;;;;;42.20;22.60;;;;;;;;;;5052048;28;20052;-65
2023/08/30 06:41:16;;;;;;;42.47;23.63;;;;;;;;;;5052456;28;20486;-65
2023/08/30 06:43:41;;;;;;;32.55;20.67;;;;;;;;;;5051486;28;20032;-66
2023/08/30 06:46:08;;;;;;;33.00;19.45;;;;;;;;;;5055227;28;20094;-66
2023/08/30 06:48:34;;;;;;;40.72;23.65;;;;;;;;;;5047598;28;20032;-67
2023/08/30 06:50:59;;;;;;;46.13;25.33;;;;;;;;;;5046497;28;20039;-67
2023/08/30 06:53:26;;;;;;;60.58;28.95;;;;;;;;;;5053572;28;20036;-67
2023/08/30 06:55:58;;;;;;;61.47;29.38;;;;;;;;;;5036117;28;20063;-68
2023/08/30 06:58:23;;;;;;;55.30;29.05;;;;;;;;;;5033923;28;20566;-68
2023/08/30 07:00:48;;;;;;;55.05;27.17;;;;;;;;;;5052177;28;20204;-68
2023/08/30 07:03:13;;;;;;;58.03;27.70;;;;;;;;;;5035976;28;20036;-66
2023/08/30 07:05:43;;;;;;;63.88;29.60;;;;;;;;;;5053162;28;20041;-66
2023/08/30 07:08:08;;;;;;;57.38;27.23;;;;;;;;;;5034222;28;20041;-66
2023/08/30 07:10:34;;;;;;;70.85;32.83;;;;;;;;;;5052562;28;20039;-68
2023/08/30 07:12:59;;;;;;;70.45;34.25;;;;;;;;;;5036897;28;20382;-67
2023/08/30 07:15:25;;;;;;;64.60;30.73;;;;;;;;;;5054211;28;20017;-67
2023/08/30 07:17:50;;;;;;;70.07;35.95;;;;;;;;;;5053340;28;20040;-68
2023/08/30 07:20:15;;;;;;;59.85;28.83;;;;;;;;;;5045918;28;20033;-67
2023/08/30 07:22:43;;;;;;;47.17;23.27;;;;;;;;;;5035688;28;20047;-66
2023/08/30 07:25:10;;;;;;;45.40;23.80;;;;;;;;;;5032476;28;20025;-68
2023/08/30 07:27:35;;;;;;;33.15;20.50;;;;;;;;;;5035129;28;20075;-68
2023/08/30 07:30:00;;;;;;;30.27;20.70;;;;;;;;;;5032937;28;20473;-69
2023/08/30 07:32:28;;;;;;;38.88;25.10;;;;;;;;;;5041320;28;20105;-68
2023/08/30 07:34:54;;;;;;;34.58;22.05;;;;;;;;;;5036523;28;20484;-69
2023/08/30 07:37:20;;;;;;;38.72;25.00;;;;;;;;;;5037302;28;20088;-69
2023/08/30 07:39:47;;;;;;;47.72;28.52;;;;;;;;;;5051996;28;20043;-69
2023/08/30 07:42:15;;;;;;;73.82;38.63;;;;;;;;;;5028789;28;20036;-67
2023/08/30 07:44:41;;;;;;;71.60;40.70;;;;;;;;;;5036288;28;20500;-68
2023/08/30 07:47:06;;;;;;;77.93;41.45;;;;;;;;;;5039462;28;20037;-70
2023/08/30 07:49:31;;;;;;;69.13;38.33;;;;;;;;;;5054096;28;20599;-69
2023/08/30 07:51:59;;;;;;;56.55;35.13;;;;;;;;;;5036568;28;20032;-69
2023/08/30 07:54:26;;;;;;;50.72;32.75;;;;;;;;;;5053794;28;20062;-68
2023/08/30 07:56:51;;;;;;;41.08;29.25;;;;;;;;;;5059323;28;20041;-68
2023/08/30 07:59:22;;;;;;;37.78;26.52;;;;;;;;;;5045499;28;20102;-67
2023/08/30 08:01:47;;;;;;;36.55;26.40;;;;;;;;;;5050516;28;20227;-66
2023/08/30 08:04:12;;;;;;;30.48;22.65;;;;;;;;;;5040286;28;20363;-67
2023/08/30 08:06:37;;;;;;;28.55;21.38;;;;;;;;;;5039827;28;20568;-68
2023/08/30 08:09:03;;;;;;;31.65;21.85;;;;;;;;;;5048901;28;20071;-67
2023/08/30 08:11:28;;;;;;;31.60;21.08;;;;;;;;;;5049541;28;20033;-65
2023/08/30 08:13:53;;;;;;;26.65;19.73;;;;;;;;;;5060681;28;20051;-69
2023/08/30 08:16:21;;;;;;;31.90;20.90;;;;;;;;;;5034777;28;20230;-67
2023/08/30 08:18:49;;;;;;;32.42;20.38;;;;;;;;;;5053601;28;20048;-68
2023/08/30 08:21:14;;;;;;;22.80;14.93;;;;;;;;;;5038090;28;20071;-67
2023/08/30 08:23:39;;;;;;;21.38;14.00;;;;;;;;;;5054813;28;20028;-67
2023/08/30 08:26:05;;;;;;;18.55;12.43;;;;;;;;;;5046964;28;20063;-68
2023/08/30 08:28:30;;;;;;;20.65;12.88;;;;;;;;;;5047945;28;20056;-67
2023/08/30 08:30:55;;;;;;;20.60;14.25;;;;;;;;;;5041007;28;20028;-66
2023/08/30 08:33:22;;;;;;;18.63;13.13;;;;;;;;;;5048327;28;20124;-68
2023/08/30 08:35:49;;;;;;;19.85;14.35;;;;;;;;;;5056224;28;20071;-68
2023/08/30 08:38:14;;;;;;;20.02;13.48;;;;;;;;;;5053064;28;20119;-69
2023/08/30 08:40:39;;;;;;;19.42;14.13;;;;;;;;;;5051511;28;20047;-68
2023/08/30 08:43:05;;;;;;;13.70;5.80;;;;;;;;;;5040349;28;20037;-69
2023/08/30 08:45:34;;;;;;;8.93;4.55;;;;;;;;;;5043173;28;20326;-70
2023/08/30 08:48:03;;;;;;;7.38;3.80;;;;;;;;;;5051902;28;20025;-69
2023/08/30 08:50:29;;;;;;;8.35;3.40;;;;;;;;;;5050557;28;20040;-69
2023/08/30 08:52:56;;;;;;;7.63;3.10;;;;;;;;;;5050121;28;20217;-68
2023/08/30 08:55:22;;;;;;;7.22;3.20;;;;;;;;;;5041148;28;20045;-67
2023/08/30 08:57:48;;;;;;;7.22;3.03;;;;;;;;;;5045198;28;20032;-67
2023/08/30 09:00:13;;;;;;;11.50;3.42;;;;;;;;;;5052734;28;20497;-68
2023/08/30 09:02:42;;;;;;;4.95;2.80;;;;;;;;;;5047320;28;20214;-69
2023/08/30 09:05:08;;;;;;;7.45;2.72;;;;;;;;;;5049002;28;20028;-69
2023/08/30 09:07:37;;;;;;;6.72;3.00;;;;;;;;;;5037555;28;20102;-69
2023/08/30 09:10:03;;;;;;;8.00;2.88;;;;;;;;;;5043888;28;20080;-68
2023/08/30 09:12:32;;;;;;;8.82;3.28;;;;;;;;;;5036325;28;20188;-69
2023/08/30 09:14:57;;;;;;;7.95;3.83;;;;;;;;;;5039000;28;20150;-68
2023/08/30 09:17:25;;;;;;;9.07;3.42;;;;;;;;;;5050343;28;20052;-69
2023/08/30 09:19:50;;;;;;;7.40;3.38;;;;;;;;;;5054990;28;20409;-67
2023/08/30 09:22:16;;;;;;;7.57;3.42;;;;;;;;;;5040157;28;20043;-67
2023/08/30 09:24:43;;;;;;;9.02;3.45;;;;;;;;;;5052666;28;20051;-67
2023/08/30 09:27:08;;;;;;;8.80;3.20;;;;;;;;;;5051417;28;20033;-66
2023/08/30 09:29:34;;;;;;;10.75;3.20;;;;;;;;;;5040088;28;20033;-66
2023/08/30 09:32:01;;;;;;;9.02;2.85;;;;;;;;;;5005302;28;20029;-65
2023/08/30 09:34:26;;;;;;;8.95;3.05;;;;;;;;;;5042624;28;20505;-67
2023/08/30 09:36:55;;;;;;;8.05;3.10;;;;;;;;;;5042069;28;20093;-66
2023/08/30 09:39:20;;;;;;;11.70;2.85;;;;;;;;;;5039512;28;20037;-68
2023/08/30 09:41:49;;;;;;;7.75;3.10;;;;;;;;;;5031692;28;20041;-68
2023/08/30 09:44:19;;;;;;;9.85;2.65;;;;;;;;;;5045495;28;20546;-66
2023/08/30 09:46:51;;;;;;;8.52;2.63;;;;;;;;;;5050192;28;20565;-67
2023/08/30 09:49:18;;;;;;;12.68;3.38;;;;;;;;;;5035242;28;20116;-68
2023/08/30 09:51:46;;;;;;;10.55;2.58;;;;;;;;;;5054138;28;20076;-67
2023/08/30 09:54:18;;;;;;;9.30;2.40;;;;;;;;;;5045914;28;20087;-67
2023/08/30 09:56:46;;;;;;;10.90;2.75;;;;;;;;;;5051573;28;20136;-67
2023/08/30 09:59:14;;;;;;;11.65;2.70;;;;;;;;;;5029615;28;20043;-66
2023/08/30 10:01:40;;;;;;;10.90;2.55;;;;;;;;;;5036136;28;20128;-69
2023/08/30 10:04:06;;;;;;;10.88;2.50;;;;;;;;;;5050299;28;20037;-67
2023/08/30 10:06:32;;;;;;;10.73;2.53;;;;;;;;;;5036268;28;20037;-67
2023/08/30 10:09:00;;;;;;;12.43;2.67;;;;;;;;;;5050978;28;20279;-65
2023/08/30 10:11:29;;;;;;;11.55;2.60;;;;;;;;;;5049496;28;20053;-65
2023/08/30 10:13:55;;;;;;;9.77;2.42;;;;;;;;;;5043737;28;20514;-67
2023/08/30 10:16:22;;;;;;;12.48;2.45;;;;;;;;;;5045801;28;20048;-66
2023/08/30 10:18:50;;;;;;;10.90;2.88;;;;;;;;;;5045922;28;20159;-67
2023/08/30 10:21:18;;;;;;;10.18;2.38;;;;;;;;;;5044877;28;20820;-66
2023/08/30 10:23:44;;;;;;;8.07;2.13;;;;;;;;;;5041324;28;20044;-68
2023/08/30 10:26:09;;;;;;;11.15;2.53;;;;;;;;;;5036556;28;20032;-68
2023/08/30 10:28:35;;;;;;;9.30;2.30;;;;;;;;;;5051359;28;20465;-65
2023/08/30 10:31:00;;;;;;;8.10;2.08;;;;;;;;;;5037963;28;20043;-69
2023/08/30 10:33:26;;;;;;;8.60;2.60;;;;;;;;;;5033722;28;20041;-67
2023/08/30 10:35:51;;;;;;;10.65;2.10;;;;;;;;;;5049542;28;20036;-66
2023/08/30 10:38:32;;;;;;;13.45;2.80;;;;;;;;;;5050260;28;20048;-68
2023/08/30 10:41:06;;;;;;;9.13;2.47;;;;;;;;;;5047935;28;20039;-70
2023/08/30 10:43:34;;;;;;;10.77;1.90;;;;;;;;;;5053300;28;20043;-66
2023/08/30 10:46:01;;;;;;;12.88;2.60;;;;;;;;;;5035578;28;20082;-69
2023/08/30 10:48:33;;;;;;;10.60;2.05;;;;;;;;;;5044943;28;20028;-67
2023/08/30 10:50:59;;;;;;;11.13;2.42;;;;;;;;;;5051872;28;20515;-66
2023/08/30 10:53:29;;;;;;;10.40;2.75;;;;;;;;;;5029513;28;20500;-68
2023/08/30 10:56:03;;;;;;;11.55;2.95;;;;;;;;;;5049417;28;20036;-66
2023/08/30 10:58:28;;;;;;;;;;;;;;;;;;5041502;28;20029;-64
2023/08/30 11:00:54;;;;;;;10.87;2.40;;;;;;;;;;5043332;28;19908;-65
2023/08/30 11:03:20;;;;;;;12.98;2.55;;;;;;;;;;5041467;28;20622;-67
2023/08/30 11:05:46;;;;;;;8.32;2.20;;;;;;;;;;5035433;28;20087;-64
2023/08/30 11:08:12;;;;;;;10.52;2.22;;;;;;;;;;5050082;28;20040;-66
2023/08/30 11:10:39;;;;;;;9.93;2.40;;;;;;;;;;5038353;28;20035;-67
2023/08/30 11:13:07;;;;;;;14.23;2.33;;;;;;;;;;5053653;28;20031;-64
2023/08/30 11:15:32;;;;;;;10.40;2.38;;;;;;;;;;5048890;28;20029;-66
2023/08/30 11:18:04;;;;;;;8.23;2.05;;;;;;;;;;5043936;28;20040;-65
2023/08/30 11:20:29;;;;;;;8.55;2.05;;;;;;;;;;5041097;28;20379;-65
2023/08/30 11:22:55;;;;;;;11.50;2.35;;;;;;;;;;5056125;28;20054;-66
2023/08/30 11:25:23;;;;;;;8.93;2.20;;;;;;;;;;5052182;28;20025;-65
2023/08/30 11:28:01;;;;;;;11.50;1.92;;;;;;;;;;5046651;28;20029;-64
2023/08/30 11:30:28;;;;;;;10.18;1.92;;;;;;;;;;5042441;28;20460;-66
2023/08/30 11:32:55;;;;;;;8.63;2.05;;;;;;;;;;5039588;28;20122;-64
2023/08/30 11:35:21;;;;;;;10.90;1.80;;;;;;;;;;5022419;28;20068;-63
2023/08/30 11:37:47;;;;;;;10.18;1.80;;;;;;;;;;5035578;28;20036;-66
2023/08/30 11:40:14;;;;;;;9.50;1.52;;;;;;;;;;5041194;28;20394;-65
2023/08/30 11:42:40;;;;;;;5.15;1.25;;;;;;;;;;5044288;28;20037;-64
2023/08/30 11:45:05;;;;;;;7.97;1.98;;;;;;;;;;5047881;28;20044;-65
2023/08/30 11:47:30;;;;;;;5.10;1.50;;;;;;;;;;5040860;28;20161;-64
2023/08/30 11:49:57;;;;;;;9.50;1.60;;;;;;;;;;5052498;28;20093;-64
2023/08/30 11:52:23;;;;;;;8.07;1.70;;;;;;;;;;5050337;28;20036;-64
2023/08/30 11:54:51;;;;;;;8.35;1.23;;;;;;;;;;5039775;28;20382;-65
2023/08/30 11:57:19;;;;;;;6.38;1.20;;;;;;;;;;5054249;28;20037;-64
2023/08/30 11:59:47;;;;;;;11.20;1.98;;;;;;;;;;5052205;28;20094;-64
2023/08/30 12:02:13;;;;;;;8.95;1.30;;;;;;;;;;5034275;28;20111;-63
2023/08/30 12:04:42;;;;;;;8.95;1.50;;;;;;;;;;5049779;28;20032;-64
2023/08/30 12:07:08;;;;;;;7.45;1.40;;;;;;;;;;5036643;28;20493;-64
2023/08/30 12:09:34;;;;;;;5.05;1.35;;;;;;;;;;5035467;28;20237;-64
2023/08/30 12:12:06;;;;;;;6.63;1.50;;;;;;;;;;5035745;28;20037;-64
2023/08/30 12:14:35;;;;;;;8.65;1.75;;;;;;;;;;5027258;28;20589;-64
2023/08/30 12:17:00;;;;;;;5.85;1.40;;;;;;;;;;5031424;28;20044;-64
2023/08/30 12:19:28;;;;;;;7.50;1.60;;;;;;;;;;5025881;28;20037;-64
2023/08/30 12:21:53;;;;;;;7.68;1.95;;;;;;;;;;5035235;28;20311;-63
2023/08/30 12:24:18;;;;;;;9.55;1.88;;;;;;;;;;5031023;28;20034;-62
2023/08/30 12:26:44;;;;;;;8.18;1.67;;;;;;;;;;5027081;28;20116;-64
2023/08/30 12:29:09;;;;;;;18.05;2.42;;;;;;;;;;5030485;28;20048;-65
2023/08/30 12:31:34;;;;;;;9.05;1.85;;;;;;;;;;5011532;28;20084;-65
2023/08/30 12:34:00;;;;;;;8.10;1.83;;;;;;;;;;5033083;28;20244;-64
2023/08/30 12:36:27;;;;;;;12.15;2.13;;;;;;;;;;5037401;28;20059;-66
2023/08/30 12:38:53;;;;;;;16.67;2.80;;;;;;;;;;5036649;28;20029;-65
2023/08/30 12:41:20;;;;;;;13.18;2.40;;;;;;;;;;5018127;28;20205;-64
2023/08/30 12:43:45;;;;;;;15.80;2.30;;;;;;;;;;5018913;28;20041;-65
2023/08/30 12:46:11;;;;;;;6.78;1.63;;;;;;;;;;5037180;28;20506;-64
2023/08/30 12:48:36;;;;;;;6.60;1.73;;;;;;;;;;5037417;28;20460;-64
2023/08/30 12:51:03;;;;;;;9.88;1.90;;;;;;;;;;5030794;28;20034;-65
2023/08/30 12:53:28;;;;;;;8.45;1.73;;;;;;;;;;5029036;28;20041;-65
2023/08/30 12:55:54;;;;;;;14.07;2.25;;;;;;;;;;5033836;28;20406;-66
2023/08/30 12:58:19;;;;;;;10.73;2.13;;;;;;;;;;5026521;28;20474;-64
2023/08/30 13:00:44;;;;;;;12.73;2.25;;;;;;;;;;5025525;28;20061;-64
2023/08/30 13:03:09;;;;;;;8.30;1.95;;;;;;;;;;5026828;28;20103;-64
2023/08/30 13:05:36;;;;;;;11.70;2.10;;;;;;;;;;5032061;28;20029;-65
2023/08/30 13:08:02;;;;;;;15.00;2.10;;;;;;;;;;5016240;28;20060;-65
2023/08/30 13:10:27;;;;;;;10.85;1.85;;;;;;;;;;5018937;28;20029;-66
2023/08/30 13:12:52;;;;;;;15.30;2.28;;;;;;;;;;5033580;28;20327;-67
2023/08/30 13:15:18;;;;;;;18.15;2.45;;;;;;;;;;5018522;28;20292;-68
2023/08/30 13:17:43;;;;;;;17.63;2.53;;;;;;;;;;5015916;28;20118;-68
2023/08/30 13:20:09;;;;;;;13.90;2.90;;;;;;;;;;5011938;28;20087;-68
2023/08/30 13:22:34;;;;;;;9.10;1.98;;;;;;;;;;5033895;28;20071;-67
2023/08/30 13:25:03;;;;;;;8.65;1.83;;;;;;;;;;5016488;28;20064;-68
2023/08/30 13:27:29;;;;;;;13.43;2.95;;;;;;;;;;5033025;28;20356;-68
2023/08/30 13:29:54;;;;;;;11.40;1.88;;;;;;;;;;5037642;28;20032;-68
2023/08/30 13:32:19;;;;;;;8.93;2.08;;;;;;;;;;5015830;28;20033;-68
2023/08/30 13:34:45;;;;;;;9.02;2.13;;;;;;;;;;5030459;28;20055;-68
2023/08/30 13:37:11;;;;;;;11.60;2.00;;;;;;;;;;5037897;28;20040;-68
2023/08/30 13:39:36;;;;;;;10.10;1.80;;;;;;;;;;5037153;28;20033;-69
2023/08/30 13:42:02;;;;;;;10.88;1.50;;;;;;;;;;5039415;28;20033;-70
2023/08/30 13:44:28;;;;;;;8.70;1.40;;;;;;;;;;5018086;28;20033;-67
2023/08/30 13:46:53;;;;;;;6.57;1.60;;;;;;;;;;5038066;28;20578;-67
2023/08/30 13:49:18;;;;;;;6.68;1.67;;;;;;;;;;5036692;28;20181;-68
2023/08/30 13:51:44;;;;;;;8.30;1.40;;;;;;;;;;5010994;28;20041;-67
2023/08/30 13:54:10;;;;;;;8.13;1.70;;;;;;;;;;5034415;28;20525;-68
2023/08/30 13:56:35;;;;;;;11.82;1.33;;;;;;;;;;5014705;28;20025;-67
2023/08/30 13:59:01;;;;;;;7.15;1.40;;;;;;;;;;5036410;28;20033;-67
2023/08/30 14:01:26;;;;;;;12.88;1.80;;;;;;;;;;5036850;28;20094;-67
2023/08/30 14:03:51;;;;;;;8.60;1.67;;;;;;;;;;5015925;28;20037;-68
2023/08/30 14:06:17;;;;;;;6.13;1.42;;;;;;;;;;5037198;28;20107;-66
2023/08/30 14:08:45;;;;;;;7.75;1.20;;;;;;;;;;5035847;28;20037;-67
2023/08/30 14:11:10;;;;;;;9.85;1.55;;;;;;;;;;5018318;28;20036;-68
2023/08/30 14:13:35;;;;;;;13.40;1.63;;;;;;;;;;5018056;28;20622;-67
2023/08/30 14:16:02;;;;;;;7.30;1.40;;;;;;;;;;5033678;28;20029;-67
2023/08/30 14:18:27;;;;;;;5.75;1.30;;;;;;;;;;5034979;28;20033;-67
2023/08/30 14:20:57;;;;;;;7.10;1.35;;;;;;;;;;5044691;28;20064;-70
2023/08/30 14:23:26;;;;;;;8.18;1.40;;;;;;;;;;5051210;28;20079;-68